Time;durP1;ratioP1;P1;durP2;ratioP2;P2;SDS_P1;SDS_P2;PMS_P1;PMS_P2;Temp;Humidity;BMP_temperature;BMP_pressure;BME280_temperature;BME280_humidity;BME280_pressure;Samples;Min_cycle;Max_cycle;Signal;HPM_P1;HPM_P2
2021/03/21 00:02:22;;;;;;;5.27;4.73;;;;;;;;;;4991127;28;20272;-70
2021/03/21 00:04:49;;;;;;;5.57;4.73;;;;;;;;;;5017516;28;20314;-70
2021/03/21 00:07:15;;;;;;;5.97;5.40;;;;;;;;;;4992718;28;20239;-69
2021/03/21 00:09:41;;;;;;;6.43;5.40;;;;;;;;;;5012753;28;20828;-70
2021/03/21 00:12:07;;;;;;;5.57;5.00;;;;;;;;;;4995549;28;20213;-70
2021/03/21 00:14:33;;;;;;;5.87;4.47;;;;;;;;;;5013285;28;20187;-70
2021/03/21 00:16:59;;;;;;;9.07;5.30;;;;;;;;;;5013211;28;20272;-70
2021/03/21 00:19:25;;;;;;;5.67;4.83;;;;;;;;;;5013394;28;20192;-70
2021/03/21 00:21:51;;;;;;;6.87;5.23;;;;;;;;;;4995822;28;20202;-70
2021/03/21 00:24:17;;;;;;;5.50;4.93;;;;;;;;;;5014166;28;20657;-70
2021/03/21 00:26:43;;;;;;;6.07;5.10;;;;;;;;;;4996086;28;20222;-70
2021/03/21 00:29:10;;;;;;;6.20;4.53;;;;;;;;;;5019563;28;20192;-69
2021/03/21 00:31:36;;;;;;;7.70;5.33;;;;;;;;;;5017012;28;20193;-69
2021/03/21 00:34:02;;;;;;;6.43;4.33;;;;;;;;;;5004693;28;20180;-70
2021/03/21 00:36:28;;;;;;;7.57;5.07;;;;;;;;;;4995226;28;20194;-70
2021/03/21 00:38:55;;;;;;;6.60;4.80;;;;;;;;;;5003903;28;20237;-70
2021/03/21 00:41:22;;;;;;;5.50;4.30;;;;;;;;;;5012364;28;20184;-71
2021/03/21 00:43:50;;;;;;;8.00;5.00;;;;;;;;;;5008678;28;20566;-70
2021/03/21 00:46:16;;;;;;;5.20;4.70;;;;;;;;;;5019343;28;20226;-70
2021/03/21 00:48:43;;;;;;;5.60;5.10;;;;;;;;;;5002210;28;20187;-70
2021/03/21 00:51:10;;;;;;;7.23;4.93;;;;;;;;;;5013360;28;20191;-71
2021/03/21 00:53:36;;;;;;;5.50;4.33;;;;;;;;;;5014764;28;20209;-70
2021/03/21 00:56:03;;;;;;;7.10;5.00;;;;;;;;;;5001940;28;20245;-70
2021/03/21 00:58:29;;;;;;;5.73;5.03;;;;;;;;;;4999922;28;20207;-70
2021/03/21 01:00:56;;;;;;;6.30;4.60;;;;;;;;;;5019640;28;20683;-70
2021/03/21 01:03:23;;;;;;;7.37;4.73;;;;;;;;;;4999575;28;20630;-70
2021/03/21 01:05:55;;;;;;;7.07;4.83;;;;;;;;;;5005940;28;20175;-70
2021/03/21 01:08:26;;;;;;;6.47;5.07;;;;;;;;;;5014160;28;20189;-70
2021/03/21 01:10:56;;;;;;;6.43;5.07;;;;;;;;;;5018419;28;20250;-70
2021/03/21 01:13:22;;;;;;;5.33;4.77;;;;;;;;;;5012446;28;20311;-69
2021/03/21 01:15:48;;;;;;;6.77;4.63;;;;;;;;;;4998089;28;20185;-70
2021/03/21 01:18:19;;;;;;;5.40;4.90;;;;;;;;;;4998946;28;20584;-70
2021/03/21 01:20:45;;;;;;;6.40;5.30;;;;;;;;;;5017242;28;20287;-69
2021/03/21 01:23:11;;;;;;;8.23;5.37;;;;;;;;;;4998637;28;20709;-69
2021/03/21 01:25:38;;;;;;;6.03;4.80;;;;;;;;;;5019165;28;20177;-70
2021/03/21 01:28:17;;;;;;;6.37;5.40;;;;;;;;;;5017912;28;20197;-70
2021/03/21 01:30:43;;;;;;;8.23;5.90;;;;;;;;;;5016213;28;20246;-70
2021/03/21 01:33:09;;;;;;;5.70;4.80;;;;;;;;;;5016913;28;20216;-70
2021/03/21 01:35:35;;;;;;;6.13;5.17;;;;;;;;;;5026307;28;20851;-70
2021/03/21 01:38:01;;;;;;;6.30;5.70;;;;;;;;;;5022786;28;20204;-70
2021/03/21 01:40:27;;;;;;;7.53;4.83;;;;;;;;;;4998712;28;20186;-70
2021/03/21 01:42:53;;;;;;;7.93;4.90;;;;;;;;;;5013093;28;20630;-70
2021/03/21 01:45:36;;;;;;;6.60;5.07;;;;;;;;;;5001234;28;20271;-71
2021/03/21 01:48:11;;;;;;;6.63;5.27;;;;;;;;;;5012518;28;20290;-70
2021/03/21 01:50:43;;;;;;;5.17;4.63;;;;;;;;;;5002091;28;20179;-71
2021/03/21 01:53:10;;;;;;;6.53;4.70;;;;;;;;;;5013911;28;20211;-70
2021/03/21 01:55:36;;;;;;;5.93;5.20;;;;;;;;;;4999115;28;20219;-70
2021/03/21 01:58:02;;;;;;;5.87;5.00;;;;;;;;;;4997262;28;20329;-70
2021/03/21 02:00:28;;;;;;;7.03;5.00;;;;;;;;;;4991375;28;20286;-70
2021/03/21 02:02:54;;;;;;;5.67;5.10;;;;;;;;;;5012243;28;20253;-69
2021/03/21 02:05:20;;;;;;;6.20;5.60;;;;;;;;;;4994887;28;20181;-70
2021/03/21 02:07:46;;;;;;;7.07;5.90;;;;;;;;;;5009789;28;20281;-70
2021/03/21 02:10:30;;;;;;;5.87;5.27;;;;;;;;;;5018185;28;20210;-70
2021/03/21 02:13:16;;;;;;;6.60;5.70;;;;;;;;;;5016196;28;20200;-70
2021/03/21 02:15:54;;;;;;;6.67;5.87;;;;;;;;;;5011816;28;20187;-70
2021/03/21 02:18:38;;;;;;;6.73;5.67;;;;;;;;;;5011229;28;20212;-70
2021/03/21 02:21:11;;;;;;;6.80;5.57;;;;;;;;;;4997995;28;20664;-70
2021/03/21 02:23:46;;;;;;;7.93;5.67;;;;;;;;;;5016100;28;20323;-69
2021/03/21 02:26:23;;;;;;;7.37;5.77;;;;;;;;;;4999601;28;20681;-70
2021/03/21 02:28:49;;;;;;;6.80;5.40;;;;;;;;;;5016361;28;20185;-70
2021/03/21 02:31:23;;;;;;;6.93;5.83;;;;;;;;;;5012288;28;20215;-70
2021/03/21 02:33:53;;;;;;;6.90;5.33;;;;;;;;;;5012716;28;20180;-70
2021/03/21 02:36:24;;;;;;;6.90;5.27;;;;;;;;;;5004567;28;20609;-70
2021/03/21 02:38:54;;;;;;;11.00;5.63;;;;;;;;;;4992248;28;20209;-70
2021/03/21 02:41:28;;;;;;;6.53;5.30;;;;;;;;;;5019140;28;20191;-70
2021/03/21 02:44:06;;;;;;;6.60;5.73;;;;;;;;;;4999461;28;20180;-70
2021/03/21 02:46:33;;;;;;;6.33;5.73;;;;;;;;;;5014744;28;20214;-71
2021/03/21 02:49:02;;;;;;;7.03;5.10;;;;;;;;;;5009269;28;20187;-70
2021/03/21 02:51:31;;;;;;;8.67;4.70;;;;;;;;;;4999221;28;20198;-69
2021/03/21 02:54:10;;;;;;;7.33;5.40;;;;;;;;;;5024934;28;20636;-70
2021/03/21 02:56:37;;;;;;;8.43;5.67;;;;;;;;;;4990897;28;20273;-70
2021/03/21 02:59:13;;;;;;;7.60;5.77;;;;;;;;;;5024670;28;20213;-70
2021/03/21 03:01:50;;;;;;;6.13;5.33;;;;;;;;;;5015805;28;20187;-70
2021/03/21 03:04:19;;;;;;;6.83;5.80;;;;;;;;;;5010992;28;20184;-70
2021/03/21 03:06:58;;;;;;;8.03;6.03;;;;;;;;;;5015592;28;20244;-70
2021/03/21 03:09:32;;;;;;;6.00;5.50;;;;;;;;;;5005569;28;20240;-70
2021/03/21 03:12:01;;;;;;;6.63;5.63;;;;;;;;;;4992413;28;20270;-70
2021/03/21 03:14:35;;;;;;;7.63;5.67;;;;;;;;;;5007143;28;20220;-70
2021/03/21 03:17:30;;;;;;;7.33;6.13;;;;;;;;;;5015508;28;20216;-70
2021/03/21 03:20:06;;;;;;;6.67;5.87;;;;;;;;;;4929303;28;20217;-70
2021/03/21 03:22:45;;;;;;;6.90;5.93;;;;;;;;;;5012833;28;20591;-70
2021/03/21 03:25:29;;;;;;;7.87;6.43;;;;;;;;;;5008284;28;20185;-70
2021/03/21 03:28:34;;;;;;;6.33;5.37;;;;;;;;;;5016685;28;20209;-70
2021/03/21 03:31:09;;;;;;;6.40;5.80;;;;;;;;;;4952545;28;20193;-69
2021/03/21 03:33:36;;;;;;;7.23;5.80;;;;;;;;;;4940633;29;20288;-70
2021/03/21 03:36:04;;;;;;;6.77;6.07;;;;;;;;;;4949686;28;20203;-70
2021/03/21 03:38:30;;;;;;;7.17;6.13;;;;;;;;;;4957568;28;20274;-70
2021/03/21 03:40:59;;;;;;;6.20;5.60;;;;;;;;;;4953251;28;20186;-70
2021/03/21 03:43:36;;;;;;;6.17;5.57;;;;;;;;;;4960214;28;20218;-70
2021/03/21 03:46:10;;;;;;;7.43;6.63;;;;;;;;;;4932369;28;20752;-70
2021/03/21 03:48:40;;;;;;;7.03;5.67;;;;;;;;;;4944047;28;20217;-70
2021/03/21 03:51:10;;;;;;;6.20;5.60;;;;;;;;;;4958064;28;20194;-70
2021/03/21 03:53:36;;;;;;;7.00;5.87;;;;;;;;;;4939266;29;20215;-70
2021/03/21 03:56:02;;;;;;;7.33;5.90;;;;;;;;;;4958935;28;20215;-70
2021/03/21 03:58:32;;;;;;;6.30;5.67;;;;;;;;;;4962895;28;20326;-71
2021/03/21 04:01:02;;;;;;;6.20;5.57;;;;;;;;;;4946955;28;20193;-70
2021/03/21 04:03:28;;;;;;;6.23;5.50;;;;;;;;;;5014285;28;20359;-69
2021/03/21 04:05:58;;;;;;;10.07;5.80;;;;;;;;;;5020934;28;20199;-69
2021/03/21 04:08:32;;;;;;;6.70;5.77;;;;;;;;;;5010202;28;20566;-70
2021/03/21 04:11:20;;;;;;;6.13;5.43;;;;;;;;;;4996593;28;20204;-71
2021/03/21 04:13:58;;;;;;;7.87;5.60;;;;;;;;;;5014671;28;20212;-70
2021/03/21 04:16:28;;;;;;;8.47;6.40;;;;;;;;;;5013173;28;20673;-70
2021/03/21 04:19:05;;;;;;;9.13;5.10;;;;;;;;;;5015409;28;20204;-69
2021/03/21 04:21:48;;;;;;;7.43;5.80;;;;;;;;;;5013329;28;20489;-70
2021/03/21 04:24:17;;;;;;;7.17;5.80;;;;;;;;;;5016156;28;20552;-70
2021/03/21 04:26:45;;;;;;;7.30;5.93;;;;;;;;;;5017922;28;20186;-71
2021/03/21 04:29:17;;;;;;;6.47;5.60;;;;;;;;;;5015272;28;20197;-70
2021/03/21 04:31:44;;;;;;;6.10;5.50;;;;;;;;;;4993777;28;20244;-70
2021/03/21 04:34:11;;;;;;;8.27;6.00;;;;;;;;;;4996541;28;20193;-69
2021/03/21 04:36:43;;;;;;;7.30;5.90;;;;;;;;;;5013351;28;20213;-70
2021/03/21 04:39:17;;;;;;;6.73;5.73;;;;;;;;;;5012488;28;20216;-70
2021/03/21 04:41:46;;;;;;;7.63;5.77;;;;;;;;;;5015856;28;20205;-70
2021/03/21 04:44:18;;;;;;;7.23;6.33;;;;;;;;;;5016299;28;20660;-70
2021/03/21 04:46:49;;;;;;;7.13;5.63;;;;;;;;;;5016351;28;20182;-70
2021/03/21 04:49:17;;;;;;;6.77;5.73;;;;;;;;;;4996068;28;20194;-71
2021/03/21 04:51:45;;;;;;;7.93;5.90;;;;;;;;;;5010989;28;20209;-70
2021/03/21 04:54:17;;;;;;;6.13;5.53;;;;;;;;;;5015851;28;20648;-70
2021/03/21 04:56:46;;;;;;;6.73;6.03;;;;;;;;;;5011439;28;20212;-70
2021/03/21 04:59:14;;;;;;;6.73;6.03;;;;;;;;;;5003952;28;20285;-70
2021/03/21 05:02:03;;;;;;;6.73;5.97;;;;;;;;;;4997067;28;20186;-69
2021/03/21 05:04:32;;;;;;;6.07;5.50;;;;;;;;;;5007871;28;20202;-70
2021/03/21 05:07:10;;;;;;;8.80;6.20;;;;;;;;;;5013902;28;20228;-70
2021/03/21 05:09:38;;;;;;;6.47;5.83;;;;;;;;;;5012925;28;20245;-70
2021/03/21 05:12:07;;;;;;;5.93;5.43;;;;;;;;;;5015897;28;20216;-70
2021/03/21 05:14:39;;;;;;;6.50;5.70;;;;;;;;;;5016116;28;20193;-69
2021/03/21 05:17:05;;;;;;;7.07;6.37;;;;;;;;;;5019803;28;20265;-70
2021/03/21 05:19:37;;;;;;;6.20;5.43;;;;;;;;;;5006742;28;20180;-70
2021/03/21 05:22:12;;;;;;;7.27;5.83;;;;;;;;;;5020423;28;20203;-70
2021/03/21 05:24:41;;;;;;;9.33;6.20;;;;;;;;;;5001615;28;20184;-70
2021/03/21 05:27:14;;;;;;;6.10;5.50;;;;;;;;;;5017079;28;20190;-70
2021/03/21 05:29:40;;;;;;;6.50;5.60;;;;;;;;;;5020083;28;20310;-69
2021/03/21 05:32:07;;;;;;;7.10;6.40;;;;;;;;;;5004016;28;20207;-69
2021/03/21 05:34:33;;;;;;;6.43;5.83;;;;;;;;;;5021794;28;20238;-71
2021/03/21 05:37:02;;;;;;;5.97;5.37;;;;;;;;;;5000028;28;20227;-70
2021/03/21 05:39:32;;;;;;;8.23;6.87;;;;;;;;;;5019522;28;20193;-70
2021/03/21 05:41:58;;;;;;;8.07;5.73;;;;;;;;;;5010290;28;20208;-70
2021/03/21 05:44:24;;;;;;;6.83;6.10;;;;;;;;;;5019786;28;20190;-70
2021/03/21 05:46:56;;;;;;;6.23;5.60;;;;;;;;;;5017330;28;20716;-70
2021/03/21 05:49:48;;;;;;;6.27;5.67;;;;;;;;;;5004656;28;20188;-70
2021/03/21 05:52:32;;;;;;;7.10;5.60;;;;;;;;;;4983245;28;20224;-70
2021/03/21 05:55:17;;;;;;;8.87;5.70;;;;;;;;;;5002802;28;20181;-70
2021/03/21 05:57:55;;;;;;;8.00;5.80;;;;;;;;;;5011396;28;20691;-70
2021/03/21 06:00:38;;;;;;;6.83;6.13;;;;;;;;;;5021158;28;20188;-70
2021/03/21 06:03:34;;;;;;;7.50;5.43;;;;;;;;;;5002364;28;20216;-70
2021/03/21 06:06:18;;;;;;;7.07;5.97;;;;;;;;;;4929017;28;20201;-70
2021/03/21 06:09:02;;;;;;;6.50;5.80;;;;;;;;;;5016956;28;20206;-70
2021/03/21 06:11:28;;;;;;;7.50;5.87;;;;;;;;;;5004470;28;20298;-70
2021/03/21 06:14:13;;;;;;;8.30;6.03;;;;;;;;;;5018271;28;20699;-70
2021/03/21 06:16:39;;;;;;;6.37;5.63;;;;;;;;;;5021046;28;20233;-69
2021/03/21 06:19:14;;;;;;;8.23;6.23;;;;;;;;;;5019982;28;20311;-70
2021/03/21 06:21:59;;;;;;;8.47;6.17;;;;;;;;;;5019575;28;20191;-70
2021/03/21 06:24:25;;;;;;;9.03;6.27;;;;;;;;;;5013151;28;20186;-70
2021/03/21 06:27:06;;;;;;;7.00;5.97;;;;;;;;;;5017241;28;20204;-70
2021/03/21 06:29:44;;;;;;;11.07;7.00;;;;;;;;;;5000183;28;20184;-71
2021/03/21 06:32:21;;;;;;;8.40;6.27;;;;;;;;;;5013390;28;20247;-70
2021/03/21 06:35:06;;;;;;;7.10;6.40;;;;;;;;;;5003638;28;20560;-71
2021/03/21 06:37:37;;;;;;;7.70;6.53;;;;;;;;;;5016899;28;20197;-70
2021/03/21 06:40:22;;;;;;;7.33;6.30;;;;;;;;;;5014411;28;20216;-71
2021/03/21 06:43:00;;;;;;;6.97;6.27;;;;;;;;;;5016138;28;20199;-70
2021/03/21 06:45:47;;;;;;;6.60;5.97;;;;;;;;;;5011700;28;20618;-71
2021/03/21 06:48:13;;;;;;;7.50;6.27;;;;;;;;;;5014948;28;20219;-70
2021/03/21 06:50:50;;;;;;;6.03;5.43;;;;;;;;;;5016631;28;20199;-70
2021/03/21 06:53:16;;;;;;;6.33;5.63;;;;;;;;;;4996137;28;20266;-71
2021/03/21 06:55:44;;;;;;;7.40;5.90;;;;;;;;;;5012342;28;20182;-71
2021/03/21 06:58:29;;;;;;;6.97;6.27;;;;;;;;;;4995257;28;20583;-70
2021/03/21 07:00:54;;;;;;;10.27;6.73;;;;;;;;;;5014026;28;20177;-70
2021/03/21 07:03:20;;;;;;;8.27;6.67;;;;;;;;;;5011522;28;20213;-71
2021/03/21 07:05:46;;;;;;;7.63;6.03;;;;;;;;;;4994958;28;20222;-71
2021/03/21 07:08:27;;;;;;;6.10;5.50;;;;;;;;;;5014072;28;20194;-71
2021/03/21 07:10:57;;;;;;;8.93;5.43;;;;;;;;;;5014413;28;20197;-71
2021/03/21 07:13:42;;;;;;;6.57;5.97;;;;;;;;;;5016375;28;20216;-73
2021/03/21 07:16:11;;;;;;;8.30;6.40;;;;;;;;;;5015133;28;20324;-70
2021/03/21 07:18:43;;;;;;;8.53;6.07;;;;;;;;;;5018183;28;20216;-72
2021/03/21 07:21:28;;;;;;;8.07;6.40;;;;;;;;;;4994221;28;20230;-70
2021/03/21 07:23:56;;;;;;;12.90;8.63;;;;;;;;;;5009313;28;20564;-70
2021/03/21 07:26:22;;;;;;;20.10;13.17;;;;;;;;;;4995185;28;20213;-70
2021/03/21 07:28:51;;;;;;;9.33;7.63;;;;;;;;;;5013118;28;20237;-70
2021/03/21 07:31:27;;;;;;;7.00;6.20;;;;;;;;;;4997404;28;20194;-70
2021/03/21 07:34:11;;;;;;;6.47;5.60;;;;;;;;;;5013625;28;20190;-70
2021/03/21 07:36:49;;;;;;;7.20;5.73;;;;;;;;;;5014411;28;20223;-70
2021/03/21 07:39:15;;;;;;;7.80;6.37;;;;;;;;;;4998581;28;20283;-70
2021/03/21 07:42:00;;;;;;;8.20;6.60;;;;;;;;;;4998169;28;20182;-70
2021/03/21 07:44:48;;;;;;;6.30;5.63;;;;;;;;;;5002368;28;20183;-69
2021/03/21 07:47:14;;;;;;;6.57;5.73;;;;;;;;;;5013179;28;20190;-72
2021/03/21 07:50:09;;;;;;;7.87;6.00;;;;;;;;;;5017096;28;20189;-72
2021/03/21 07:52:51;;;;;;;6.80;6.13;;;;;;;;;;4960200;28;20277;-71
2021/03/21 07:55:22;;;;;;;7.83;6.23;;;;;;;;;;4956060;28;20185;-70
2021/03/21 07:58:06;;;;;;;7.53;6.57;;;;;;;;;;4964128;28;20222;-72
2021/03/21 08:00:33;;;;;;;8.60;6.10;;;;;;;;;;4958570;28;20230;-72
2021/03/21 08:03:17;;;;;;;7.07;6.37;;;;;;;;;;4960313;28;20217;-69
2021/03/21 08:05:43;;;;;;;8.43;6.50;;;;;;;;;;4949872;28;20200;-71
2021/03/21 08:08:13;;;;;;;7.13;5.77;;;;;;;;;;4939715;28;21160;-69
2021/03/21 08:10:40;;;;;;;7.27;5.97;;;;;;;;;;4956119;28;20226;-69
2021/03/21 08:13:11;;;;;;;6.60;6.00;;;;;;;;;;4939826;29;20207;-71
2021/03/21 08:15:39;;;;;;;7.27;5.37;;;;;;;;;;4954586;28;20318;-69
2021/03/21 08:18:09;;;;;;;9.30;6.03;;;;;;;;;;4954949;28;20294;-70
2021/03/21 08:20:37;;;;;;;7.77;6.03;;;;;;;;;;4937546;29;20190;-70
2021/03/21 08:23:13;;;;;;;6.03;5.37;;;;;;;;;;4938941;28;20376;-70
2021/03/21 08:25:39;;;;;;;7.70;5.23;;;;;;;;;;4953653;29;20760;-70
2021/03/21 08:28:05;;;;;;;6.57;5.33;;;;;;;;;;4962404;28;20196;-70
2021/03/21 08:30:49;;;;;;;5.57;5.07;;;;;;;;;;5013735;28;20184;-69
2021/03/21 08:33:32;;;;;;;9.07;6.20;;;;;;;;;;5012406;28;20253;-69
2021/03/21 08:36:13;;;;;;;7.30;5.90;;;;;;;;;;5009564;28;20222;-69
2021/03/21 08:38:39;;;;;;;7.70;5.70;;;;;;;;;;4997109;28;20587;-70
2021/03/21 08:41:06;;;;;;;6.43;5.60;;;;;;;;;;5016143;28;20191;-70
2021/03/21 08:43:34;;;;;;;6.03;5.33;;;;;;;;;;4996737;28;20210;-71
2021/03/21 08:46:00;;;;;;;6.67;5.80;;;;;;;;;;5000029;28;20243;-71
2021/03/21 08:48:32;;;;;;;5.33;4.83;;;;;;;;;;5011420;28;20191;-70
2021/03/21 08:51:19;;;;;;;6.37;5.73;;;;;;;;;;5001219;28;20253;-70
2021/03/21 08:54:12;;;;;;;6.63;5.77;;;;;;;;;;5002811;28;20278;-69
2021/03/21 08:56:39;;;;;;;6.93;5.93;;;;;;;;;;4996916;28;20256;-69
2021/03/21 08:59:25;;;;;;;8.13;5.73;;;;;;;;;;5015166;28;20837;-70
2021/03/21 09:02:01;;;;;;;5.67;4.90;;;;;;;;;;5020548;28;20204;-70
2021/03/21 09:04:27;;;;;;;6.40;5.40;;;;;;;;;;5006369;28;20241;-69
2021/03/21 09:06:53;;;;;;;6.23;5.30;;;;;;;;;;5002916;28;20188;-70
2021/03/21 09:09:46;;;;;;;6.17;4.67;;;;;;;;;;5016175;28;20231;-70
2021/03/21 09:12:24;;;;;;;5.70;5.10;;;;;;;;;;5010085;28;20717;-70
2021/03/21 09:14:51;;;;;;;7.53;5.20;;;;;;;;;;5016727;28;20188;-69
2021/03/21 09:17:25;;;;;;;5.73;5.20;;;;;;;;;;5016809;28;20213;-70
2021/03/21 09:19:58;;;;;;;5.67;5.07;;;;;;;;;;5017431;28;20193;-70
2021/03/21 09:22:29;;;;;;;5.90;5.30;;;;;;;;;;5016680;28;20206;-69
2021/03/21 09:25:01;;;;;;;6.00;5.40;;;;;;;;;;5003596;28;20211;-70
2021/03/21 09:27:32;;;;;;;7.43;4.77;;;;;;;;;;5002743;28;20201;-70
2021/03/21 09:29:59;;;;;;;5.17;4.67;;;;;;;;;;5016814;28;20186;-70
2021/03/21 09:32:29;;;;;;;6.20;5.00;;;;;;;;;;5020765;28;20856;-69
2021/03/21 09:34:55;;;;;;;7.63;5.47;;;;;;;;;;5002104;28;21097;-70
2021/03/21 09:37:23;;;;;;;5.93;5.32;;;;;;;;;;5017808;28;20500;-71
2021/03/21 09:39:53;;;;;;;6.67;4.80;;;;;;;;;;4997232;28;20247;-71
2021/03/21 09:42:19;;;;;;;5.17;4.67;;;;;;;;;;5013884;28;20198;-71
2021/03/21 09:44:46;;;;;;;6.23;5.00;;;;;;;;;;5002046;28;20183;-72
2021/03/21 09:47:44;;;;;;;7.53;5.33;;;;;;;;;;5012576;28;20188;-70
2021/03/21 09:50:13;;;;;;;6.17;4.90;;;;;;;;;;4924217;29;20469;-71
2021/03/21 09:52:45;;;;;;;6.00;5.10;;;;;;;;;;4931229;29;20301;-71
2021/03/21 09:55:30;;;;;;;5.60;5.00;;;;;;;;;;4927243;29;20635;-71
2021/03/21 09:58:18;;;;;;;7.43;5.70;;;;;;;;;;4926378;29;20757;-71
2021/03/21 10:00:48;;;;;;;5.17;4.57;;;;;;;;;;4918365;29;20805;-73
2021/03/21 10:03:35;;;;;;;5.67;5.07;;;;;;;;;;4920542;29;20215;-70
2021/03/21 10:06:01;;;;;;;7.00;5.77;;;;;;;;;;4916253;29;20236;-71
2021/03/21 10:08:27;;;;;;;7.90;5.27;;;;;;;;;;4929289;29;20214;-70
2021/03/21 10:11:03;;;;;;;6.33;5.20;;;;;;;;;;4931761;29;20199;-72
2021/03/21 10:13:43;;;;;;;6.40;5.80;;;;;;;;;;4926840;29;20317;-71
2021/03/21 10:16:08;;;;;;;8.27;6.57;;;;;;;;;;4913926;29;20699;-72
2021/03/21 10:18:42;;;;;;;10.73;7.83;;;;;;;;;;4929268;29;20227;-70
2021/03/21 10:21:08;;;;;;;9.37;8.03;;;;;;;;;;4930029;29;20269;-72
2021/03/21 10:23:50;;;;;;;8.80;7.70;;;;;;;;;;4929732;29;20246;-74
2021/03/21 10:26:21;;;;;;;8.00;7.20;;;;;;;;;;4991175;28;20257;-73
2021/03/21 10:28:51;;;;;;;14.23;10.93;;;;;;;;;;5001022;28;20193;-70
2021/03/21 10:31:23;;;;;;;10.80;8.60;;;;;;;;;;5018998;28;20246;-70
2021/03/21 10:33:50;;;;;;;8.07;6.67;;;;;;;;;;5001564;28;20720;-68
2021/03/21 10:36:35;;;;;;;7.03;6.00;;;;;;;;;;5019072;28;20682;-70
2021/03/21 10:39:01;;;;;;;6.60;5.83;;;;;;;;;;5001715;28;20208;-70
2021/03/21 10:41:46;;;;;;;7.20;6.50;;;;;;;;;;4997724;28;20609;-72
2021/03/21 10:44:12;;;;;;;8.13;6.57;;;;;;;;;;4996238;28;20235;-71
2021/03/21 10:46:46;;;;;;;7.50;6.23;;;;;;;;;;5013247;28;20648;-68
2021/03/21 10:49:12;;;;;;;7.57;6.63;;;;;;;;;;4996601;28;20183;-69
2021/03/21 10:51:58;;;;;;;7.93;6.70;;;;;;;;;;5014925;28;20189;-69
2021/03/21 10:54:26;;;;;;;8.10;6.83;;;;;;;;;;5015043;28;20202;-70
2021/03/21 10:57:11;;;;;;;8.57;6.40;;;;;;;;;;4997018;28;20199;-69
2021/03/21 10:59:36;;;;;;;7.87;7.07;;;;;;;;;;4996739;28;20311;-68
2021/03/21 11:02:22;;;;;;;8.30;6.53;;;;;;;;;;5014872;28;20698;-69
2021/03/21 11:04:58;;;;;;;7.90;6.90;;;;;;;;;;4996409;28;20185;-70
2021/03/21 11:07:24;;;;;;;7.80;7.00;;;;;;;;;;5007459;28;20228;-69
2021/03/21 11:10:07;;;;;;;9.43;7.27;;;;;;;;;;5011927;28;20202;-69
2021/03/21 11:12:37;;;;;;;8.00;7.30;;;;;;;;;;4996344;28;20217;-68
2021/03/21 11:15:19;;;;;;;12.30;7.63;;;;;;;;;;4996915;28;20185;-69
2021/03/21 11:17:45;;;;;;;8.23;7.40;;;;;;;;;;5012735;28;20205;-67
2021/03/21 11:20:40;;;;;;;10.07;8.70;;;;;;;;;;5009378;28;20224;-67
2021/03/21 11:23:10;;;;;;;9.47;8.47;;;;;;;;;;4930522;29;20219;-67
2021/03/21 11:25:42;;;;;;;10.50;8.20;;;;;;;;;;4921835;29;20241;-66
2021/03/21 11:28:13;;;;;;;10.40;9.40;;;;;;;;;;4932497;29;20286;-69
2021/03/21 11:30:49;;;;;;;10.37;9.30;;;;;;;;;;4916094;29;20279;-66
2021/03/21 11:33:35;;;;;;;10.77;9.63;;;;;;;;;;4931077;29;20745;-66
2021/03/21 11:36:13;;;;;;;11.83;10.17;;;;;;;;;;4920196;29;20283;-67
2021/03/21 11:38:40;;;;;;;11.07;9.87;;;;;;;;;;4923931;29;20252;-66
2021/03/21 11:41:18;;;;;;;12.03;10.83;;;;;;;;;;4911109;29;20603;-67
2021/03/21 11:43:44;;;;;;;12.00;10.90;;;;;;;;;;4908538;29;20295;-67
2021/03/21 11:46:11;;;;;;;16.27;10.80;;;;;;;;;;4911923;29;20287;-67
2021/03/21 11:48:39;;;;;;;12.07;10.80;;;;;;;;;;4912508;29;20741;-67
2021/03/21 11:51:05;;;;;;;11.43;10.33;;;;;;;;;;4891235;29;20710;-67
2021/03/21 11:53:35;;;;;;;12.10;10.90;;;;;;;;;;4910429;29;20238;-67
2021/03/21 11:56:30;;;;;;;11.70;10.57;;;;;;;;;;4912510;29;20223;-67
2021/03/21 11:58:56;;;;;;;14.30;11.63;;;;;;;;;;4912642;28;20308;-67
2021/03/21 12:01:37;;;;;;;11.97;10.67;;;;;;;;;;4969822;28;20269;-68
2021/03/21 12:04:04;;;;;;;11.47;10.33;;;;;;;;;;4952912;28;20200;-68
2021/03/21 12:06:32;;;;;;;11.33;10.20;;;;;;;;;;4953695;28;20182;-68
2021/03/21 12:08:59;;;;;;;12.10;10.97;;;;;;;;;;4969878;28;20229;-68
2021/03/21 12:11:25;;;;;;;10.70;9.60;;;;;;;;;;4969844;28;20234;-68
2021/03/21 12:13:52;;;;;;;11.33;10.17;;;;;;;;;;4962899;28;20205;-67
2021/03/21 12:16:36;;;;;;;10.57;9.17;;;;;;;;;;4966393;28;20202;-68
2021/03/21 12:19:04;;;;;;;10.70;8.80;;;;;;;;;;4964231;28;20206;-68
2021/03/21 12:21:30;;;;;;;10.07;9.07;;;;;;;;;;4951164;28;20189;-67
2021/03/21 12:23:56;;;;;;;8.80;7.90;;;;;;;;;;4961875;28;20612;-68
2021/03/21 12:26:22;;;;;;;10.73;9.10;;;;;;;;;;4969663;28;20540;-68
2021/03/21 12:28:54;;;;;;;9.10;8.30;;;;;;;;;;4973762;28;20209;-68
2021/03/21 12:31:26;;;;;;;9.43;8.53;;;;;;;;;;4970561;28;20276;-68
2021/03/21 12:33:52;;;;;;;10.10;9.10;;;;;;;;;;4957529;28;20347;-67
2021/03/21 12:36:20;;;;;;;10.00;8.40;;;;;;;;;;5011234;28;20265;-67
2021/03/21 12:39:12;;;;;;;10.43;9.20;;;;;;;;;;5015693;28;20214;-68
2021/03/21 12:41:41;;;;;;;9.03;8.23;;;;;;;;;;4997073;28;20197;-67
2021/03/21 12:44:13;;;;;;;9.23;8.23;;;;;;;;;;4995948;28;20207;-68
2021/03/21 12:46:58;;;;;;;8.40;7.70;;;;;;;;;;5011685;28;20189;-67
2021/03/21 12:49:44;;;;;;;8.50;7.57;;;;;;;;;;5011929;28;20207;-68
2021/03/21 12:52:42;;;;;;;7.87;7.10;;;;;;;;;;5014244;28;20311;-69
2021/03/21 12:55:08;;;;;;;8.23;7.53;;;;;;;;;;4985236;28;20196;-69
2021/03/21 12:57:34;;;;;;;9.33;7.53;;;;;;;;;;5014489;28;20243;-68
2021/03/21 13:00:00;;;;;;;7.90;7.10;;;;;;;;;;5011907;28;20181;-68
2021/03/21 13:02:29;;;;;;;7.57;6.87;;;;;;;;;;5014729;28;20668;-67
2021/03/21 13:04:55;;;;;;;7.70;6.90;;;;;;;;;;4993773;28;20180;-68
2021/03/21 13:07:21;;;;;;;10.47;8.07;;;;;;;;;;5013166;28;20185;-68
2021/03/21 13:09:47;;;;;;;11.53;8.30;;;;;;;;;;5013282;28;20200;-68
2021/03/21 13:12:14;;;;;;;7.77;6.97;;;;;;;;;;4989945;28;20703;-68
2021/03/21 13:14:40;;;;;;;8.43;7.60;;;;;;;;;;5010307;28;20174;-68
2021/03/21 13:17:06;;;;;;;7.10;6.17;;;;;;;;;;4996157;28;20187;-68
2021/03/21 13:19:32;;;;;;;5.77;5.23;;;;;;;;;;5013050;28;20205;-68
2021/03/21 13:21:58;;;;;;;6.60;6.00;;;;;;;;;;4995383;28;20215;-68
2021/03/21 13:24:24;;;;;;;5.20;4.70;;;;;;;;;;5012563;28;20219;-68
2021/03/21 13:26:51;;;;;;;5.37;4.30;;;;;;;;;;5010527;28;20247;-68
2021/03/21 13:29:17;;;;;;;4.93;4.40;;;;;;;;;;5002403;28;20184;-68
2021/03/21 13:31:43;;;;;;;4.30;3.90;;;;;;;;;;5010407;28;20188;-68
2021/03/21 13:34:09;;;;;;;4.93;4.50;;;;;;;;;;4993424;28;20216;-68
2021/03/21 13:36:35;;;;;;;5.23;4.47;;;;;;;;;;5010943;28;20219;-68
2021/03/21 13:39:01;;;;;;;4.87;4.47;;;;;;;;;;5012243;28;20217;-68
2021/03/21 13:41:27;;;;;;;4.60;4.20;;;;;;;;;;5009163;28;20183;-68
2021/03/21 13:43:53;;;;;;;4.97;4.50;;;;;;;;;;5008716;28;20299;-68
2021/03/21 13:46:21;;;;;;;4.73;4.33;;;;;;;;;;5010544;28;20189;-69
2021/03/21 13:48:46;;;;;;;5.13;4.53;;;;;;;;;;5012602;28;20195;-68
2021/03/21 13:51:13;;;;;;;5.27;4.20;;;;;;;;;;5012949;28;20812;-69
2021/03/21 13:53:39;;;;;;;5.07;4.30;;;;;;;;;;5010317;28;20720;-69
2021/03/21 13:56:07;;;;;;;5.40;4.90;;;;;;;;;;5011708;28;20193;-69
2021/03/21 13:58:33;;;;;;;4.90;4.50;;;;;;;;;;5009587;28;20254;-69
2021/03/21 14:00:59;;;;;;;6.07;5.33;;;;;;;;;;5008297;28;20180;-69
2021/03/21 14:03:26;;;;;;;5.60;5.10;;;;;;;;;;5008233;28;20690;-69
2021/03/21 14:05:52;;;;;;;5.50;5.07;;;;;;;;;;5004183;28;20276;-68
2021/03/21 14:08:20;;;;;;;6.37;5.87;;;;;;;;;;4993725;28;20193;-69
2021/03/21 14:10:47;;;;;;;7.97;4.90;;;;;;;;;;5011695;28;20197;-69
2021/03/21 14:13:13;;;;;;;5.90;5.40;;;;;;;;;;4991169;28;20415;-69
2021/03/21 14:15:41;;;;;;;5.43;4.93;;;;;;;;;;5010390;28;20310;-69
2021/03/21 14:18:08;;;;;;;6.00;5.50;;;;;;;;;;5011473;28;20205;-69
2021/03/21 14:20:35;;;;;;;5.50;5.00;;;;;;;;;;4993096;28;20250;-69
2021/03/21 14:23:04;;;;;;;6.30;5.70;;;;;;;;;;5010342;28;20201;-69
2021/03/21 14:25:30;;;;;;;6.47;5.83;;;;;;;;;;4991676;28;20173;-69
2021/03/21 14:27:56;;;;;;;6.20;5.70;;;;;;;;;;5007750;28;20199;-69
2021/03/21 14:30:23;;;;;;;6.37;5.77;;;;;;;;;;5007962;28;20560;-69
2021/03/21 14:32:50;;;;;;;7.83;5.77;;;;;;;;;;5007927;28;20212;-69
2021/03/21 14:35:16;;;;;;;6.50;5.90;;;;;;;;;;5010122;28;20189;-69
2021/03/21 14:37:42;;;;;;;6.37;5.77;;;;;;;;;;4992134;28;20250;-69
2021/03/21 14:40:08;;;;;;;7.10;6.17;;;;;;;;;;4989443;28;20209;-69
2021/03/21 14:42:35;;;;;;;6.87;6.17;;;;;;;;;;4992997;28;20202;-69
2021/03/21 14:45:01;;;;;;;6.43;5.80;;;;;;;;;;4993995;28;20625;-71
2021/03/21 14:47:28;;;;;;;6.47;5.67;;;;;;;;;;4993297;28;20191;-69
2021/03/21 14:49:54;;;;;;;5.90;5.30;;;;;;;;;;5011357;28;20565;-69
2021/03/21 14:52:20;;;;;;;6.73;6.07;;;;;;;;;;5007272;28;20205;-68
2021/03/21 14:54:46;;;;;;;6.57;5.97;;;;;;;;;;5012133;28;20307;-69
2021/03/21 14:57:12;;;;;;;7.67;6.97;;;;;;;;;;5011004;28;20177;-69
2021/03/21 14:59:38;;;;;;;7.57;6.90;;;;;;;;;;5004349;28;20225;-69
2021/03/21 15:02:04;;;;;;;7.83;7.07;;;;;;;;;;4992933;28;20204;-69
2021/03/21 15:04:30;;;;;;;7.67;6.70;;;;;;;;;;5011297;28;20185;-69
2021/03/21 15:06:56;;;;;;;7.47;6.77;;;;;;;;;;5011854;28;20185;-69
2021/03/21 15:09:22;;;;;;;7.33;6.50;;;;;;;;;;4989548;28;20173;-69